Time;durP1;ratioP1;P1;durP2;ratioP2;P2;SDS_P1;SDS_P2;PMS_P1;PMS_P2;Temp;Humidity;BMP_temperature;BMP_pressure;BME280_temperature;BME280_humidity;BME280_pressure;Samples;Min_cycle;Max_cycle;Signal;HPM_P1;HPM_P2
2022/08/14 00:02:04;;;;;;;12.50;9.45;;;27.60;55.10;;;;;;5116007;28;20042;-75
2022/08/14 00:04:34;;;;;;;13.82;10.18;;;27.60;55.50;;;;;;5115683;28;20084;-75
2022/08/14 00:06:59;;;;;;;13.60;10.35;;;27.70;55.50;;;;;;5115039;28;20381;-76
2022/08/14 00:09:25;;;;;;;10.38;9.15;;;27.60;55.80;;;;;;5114784;28;20031;-75
2022/08/14 00:11:51;;;;;;;11.18;9.48;;;27.60;55.70;;;;;;5115064;28;20423;-76
2022/08/14 00:14:17;;;;;;;17.90;11.15;;;27.60;55.60;;;;;;5115202;28;20030;-75
2022/08/14 00:16:43;;;;;;;14.43;11.45;;;27.30;56.60;;;;;;5115519;28;20036;-76
2022/08/14 00:19:09;;;;;;;13.88;10.25;;;27.20;55.90;;;;;;5115453;28;20020;-76
2022/08/14 00:21:35;;;;;;;14.10;11.38;;;27.20;56.00;;;;;;4758918;28;10000143;-76
2022/08/14 00:24:03;;;;;;;13.32;10.20;;;27.10;56.30;;;;;;5115186;28;20095;-76
2022/08/14 00:26:29;;;;;;;13.93;10.00;;;27.20;56.20;;;;;;5114400;28;20020;-76
2022/08/14 00:28:55;;;;;;;12.45;9.95;;;27.00;56.90;;;;;;5114865;28;20026;-75
2022/08/14 00:31:22;;;;;;;12.93;10.90;;;26.70;57.70;;;;;;5115319;28;20027;-75
2022/08/14 00:33:48;;;;;;;13.50;11.02;;;26.80;57.40;;;;;;5115170;28;20022;-75
2022/08/14 00:36:14;;;;;;;13.75;10.50;;;26.80;57.20;;;;;;5114734;28;20478;-75
2022/08/14 00:38:39;;;;;;;14.63;10.50;;;26.70;56.90;;;;;;5114910;28;20127;-75
2022/08/14 00:41:07;;;;;;;14.63;9.98;;;26.90;56.70;;;;;;5114805;28;20032;-75
2022/08/14 00:43:35;;;;;;;11.68;9.63;;;26.90;56.70;;;;;;5114783;28;20527;-75
2022/08/14 00:46:06;;;;;;;14.02;9.85;;;26.70;57.00;;;;;;5114299;28;20408;-75
2022/08/14 00:48:32;;;;;;;11.93;9.77;;;26.70;57.40;;;;;;5114825;28;20018;-76
2022/08/14 00:50:58;;;;;;;11.45;10.25;;;26.80;57.30;;;;;;5113775;28;20039;-75
2022/08/14 00:53:24;;;;;;;14.10;10.95;;;26.90;56.40;;;;;;5114812;28;20044;-75
2022/08/14 00:55:54;;;;;;;12.20;9.85;;;27.10;56.20;;;;;;5114265;28;20123;-75
2022/08/14 00:58:29;;;;;;;11.82;9.32;;;27.00;56.10;;;;;;5113507;28;20032;-76
2022/08/14 01:00:58;;;;;;;11.48;9.82;;;26.80;56.40;;;;;;5114489;28;20027;-75
2022/08/14 01:03:26;;;;;;;15.32;11.30;;;26.80;56.50;;;;;;5095597;28;20023;-75
2022/08/14 01:05:52;;;;;;;12.70;10.93;;;26.70;56.20;;;;;;5114362;28;20016;-76
2022/08/14 01:08:20;;;;;;;12.07;10.30;;;26.70;56.70;;;;;;5114508;28;20030;-76
2022/08/14 01:10:49;;;;;;;15.63;12.05;;;26.70;56.70;;;;;;5113987;28;20103;-76
2022/08/14 01:13:19;;;;;;;13.07;11.65;;;26.30;58.30;;;;;;5113674;28;20027;-75
2022/08/14 01:15:48;;;;;;;14.13;11.40;;;26.40;57.90;;;;;;5113210;28;20019;-75
2022/08/14 01:21:02;;;;;;;14.48;11.75;;;26.40;58.00;;;;;;5114521;28;20030;-75
2022/08/14 01:23:29;;;;;;;20.83;13.18;;;26.20;58.60;;;;;;5114271;28;20023;-76
2022/08/14 01:25:55;;;;;;;15.07;13.13;;;26.30;58.30;;;;;;5113820;28;20378;-76
2022/08/14 01:28:21;;;;;;;14.13;12.20;;;26.50;58.00;;;;;;5114071;28;20520;-75
2022/08/14 01:30:48;;;;;;;14.23;12.63;;;26.30;57.90;;;;;;5113658;28;20374;-76
2022/08/14 01:33:15;;;;;;;13.68;12.13;;;26.30;58.10;;;;;;5113451;28;20030;-75
2022/08/14 01:35:45;;;;;;;17.92;13.52;;;26.30;57.80;;;;;;5113899;28;20381;-75
2022/08/14 01:38:13;;;;;;;16.15;13.35;;;26.30;58.30;;;;;;5113655;28;20034;-75
2022/08/14 01:40:40;;;;;;;16.58;13.35;;;26.40;58.20;;;;;;5095570;28;20489;-75
2022/08/14 01:43:14;;;;;;;14.40;12.80;;;26.50;58.30;;;;;;5113784;28;20542;-75
2022/08/14 01:45:40;;;;;;;16.27;13.82;;;26.40;58.70;;;;;;5113806;28;20023;-75
2022/08/14 01:48:07;;;;;;;15.15;12.00;;;26.70;58.50;;;;;;5113612;28;20411;-76
2022/08/14 01:50:33;;;;;;;15.23;12.93;;;26.70;58.50;;;;;;5113062;28;20518;-76
2022/08/14 01:52:59;;;;;;;15.90;12.52;;;26.80;58.20;;;;;;5113269;28;20020;-76
2022/08/14 01:55:30;;;;;;;17.83;12.95;;;27.00;57.70;;;;;;5113707;28;20048;-76
2022/08/14 01:57:57;;;;;;;15.13;12.57;;;27.10;57.20;;;;;;5095435;28;20035;-76
2022/08/14 02:00:24;;;;;;;17.70;13.65;;;27.10;57.00;;;;;;5112697;28;20055;-76
2022/08/14 02:02:49;;;;;;;13.23;11.35;;;26.90;57.30;;;;;;5112642;28;20355;-76
2022/08/14 02:05:16;;;;;;;17.02;11.48;;;26.90;57.40;;;;;;5095020;28;20488;-76
2022/08/14 02:07:44;;;;;;;15.07;11.93;;;26.40;58.50;;;;;;5112619;28;20418;-76
2022/08/14 02:10:11;;;;;;;16.30;12.43;;;26.30;59.10;;;;;;5113532;28;20026;-75
2022/08/14 02:12:37;;;;;;;14.55;11.05;;;26.40;58.90;;;;;;5113410;28;20020;-76
2022/08/14 02:15:04;;;;;;;14.77;12.00;;;26.40;58.80;;;;;;5113128;28;20080;-76
2022/08/14 02:17:32;;;;;;;13.82;11.55;;;26.30;58.90;;;;;;5113060;28;20024;-76
2022/08/14 02:19:58;;;;;;;14.80;12.25;;;26.40;58.10;;;;;;5113296;28;20463;-75
2022/08/14 02:22:24;;;;;;;14.77;11.27;;;26.40;58.20;;;;;;5113232;28;20164;-76
2022/08/14 02:24:50;;;;;;;13.77;12.25;;;26.40;58.00;;;;;;5113369;28;20028;-76
2022/08/14 02:27:17;;;;;;;17.60;11.90;;;26.40;57.80;;;;;;5112720;28;20371;-77
2022/08/14 02:29:42;;;;;;;16.10;12.65;;;26.60;57.80;;;;;;5112804;28;20023;-76
2022/08/14 02:32:09;;;;;;;16.00;11.02;;;26.70;57.60;;;;;;5113243;28;20471;-76
2022/08/14 02:34:37;;;;;;;13.70;11.05;;;26.60;57.80;;;;;;5112893;28;20020;-76
2022/08/14 02:37:10;;;;;;;13.35;11.35;;;26.50;58.20;;;;;;5112562;28;20035;-76
2022/08/14 02:39:42;;;;;;;13.57;11.88;;;26.60;58.00;;;;;;5113430;28;20028;-76
2022/08/14 02:42:11;;;;;;;14.55;11.48;;;26.50;57.70;;;;;;5112929;28;20062;-75
2022/08/14 02:44:38;;;;;;;15.60;12.23;;;26.50;57.90;;;;;;5111965;28;20190;-76
2022/08/14 02:47:04;;;;;;;14.45;12.40;;;26.60;58.00;;;;;;5112965;28;20488;-76
2022/08/14 02:49:30;;;;;;;13.60;11.43;;;26.50;58.20;;;;;;5113147;28;20016;-75
2022/08/14 02:51:57;;;;;;;13.07;11.68;;;26.50;58.00;;;;;;5112723;28;20030;-76
2022/08/14 02:54:25;;;;;;;15.45;12.02;;;26.60;58.00;;;;;;5112703;28;20035;-76
2022/08/14 02:56:55;;;;;;;13.40;11.30;;;26.50;57.50;;;;;;5112672;28;20114;-75
2022/08/14 02:59:23;;;;;;;15.05;12.13;;;26.40;57.60;;;;;;5112125;28;20482;-76
2022/08/14 03:01:49;;;;;;;14.23;12.15;;;26.10;58.40;;;;;;5112996;28;20027;-76
2022/08/14 03:04:15;;;;;;;14.13;12.20;;;26.20;58.30;;;;;;5093903;28;20020;-76
2022/08/14 03:06:42;;;;;;;16.80;11.80;;;26.40;58.10;;;;;;5112380;28;20030;-75
2022/08/14 03:09:10;;;;;;;13.68;11.40;;;26.40;58.30;;;;;;5113209;28;20047;-76
2022/08/14 03:11:36;;;;;;;14.55;11.75;;;26.50;57.90;;;;;;5112279;28;20465;-76
2022/08/14 03:14:03;;;;;;;13.52;9.70;;;26.40;57.80;;;;;;5113816;28;20032;-75
2022/08/14 03:16:34;;;;;;;13.43;11.38;;;26.40;57.80;;;;;;5116516;28;20034;-75
2022/08/14 03:19:01;;;;;;;12.63;10.27;;;26.30;58.20;;;;;;5116518;28;20023;-76
2022/08/14 03:21:31;;;;;;;12.57;10.48;;;26.30;57.70;;;;;;5116334;28;20034;-76
2022/08/14 03:26:26;;;;;;;12.40;10.13;;;26.20;57.90;;;;;;5116978;28;20035;-76
2022/08/14 03:28:52;;;;;;;14.65;10.48;;;26.10;57.80;;;;;;5115908;28;20018;-76
2022/08/14 03:31:21;;;;;;;12.70;10.43;;;26.10;58.00;;;;;;5116112;28;20023;-76
2022/08/14 03:33:48;;;;;;;13.13;10.10;;;26.10;58.10;;;;;;5098052;28;20026;-76
2022/08/14 03:36:15;;;;;;;13.25;10.00;;;26.10;58.10;;;;;;5115540;28;20024;-75
2022/08/14 03:38:42;;;;;;;16.42;10.07;;;26.00;58.30;;;;;;5115610;28;20058;-75
2022/08/14 03:41:15;;;;;;;12.07;10.07;;;26.10;58.30;;;;;;5115737;28;20024;-77
2022/08/14 03:43:41;;;;;;;13.52;11.13;;;26.10;58.30;;;;;;5116023;28;20390;-76
2022/08/14 03:46:10;;;;;;;11.93;10.30;;;26.20;58.60;;;;;;5115963;28;20016;-76
2022/08/14 03:48:38;;;;;;;13.30;10.43;;;26.20;59.10;;;;;;5097841;28;20051;-76
2022/08/14 03:51:09;;;;;;;12.57;10.35;;;26.20;59.10;;;;;;5115760;28;20059;-77
2022/08/14 03:53:36;;;;;;;11.18;9.85;;;26.30;58.90;;;;;;5115675;28;20064;-76
2022/08/14 03:56:07;;;;;;;13.10;9.60;;;26.40;58.80;;;;;;5114968;28;20089;-76
2022/08/14 03:58:33;;;;;;;13.65;10.60;;;26.40;58.80;;;;;;5097065;28;20535;-76
2022/08/14 04:01:00;;;;;;;14.02;10.43;;;26.50;58.80;;;;;;5115013;28;20097;-76
2022/08/14 04:03:26;;;;;;;13.27;9.90;;;26.60;58.80;;;;;;5096635;28;20062;-76
2022/08/14 04:05:53;;;;;;;11.55;9.38;;;26.60;58.60;;;;;;5115545;28;20051;-75
2022/08/14 04:08:20;;;;;;;11.65;9.18;;;26.60;58.50;;;;;;5115616;28;20466;-76
2022/08/14 04:10:46;;;;;;;14.00;9.43;;;26.60;58.60;;;;;;5096644;28;20023;-76
2022/08/14 04:13:15;;;;;;;11.43;9.07;;;26.70;58.40;;;;;;5115597;28;20084;-76
2022/08/14 04:15:41;;;;;;;11.27;9.05;;;26.70;58.30;;;;;;5115423;28;20016;-77
2022/08/14 04:18:07;;;;;;;10.25;8.45;;;26.80;58.40;;;;;;5114723;28;20467;-76
2022/08/14 04:20:37;;;;;;;11.27;9.23;;;26.80;58.40;;;;;;5114337;28;20027;-76
2022/08/14 04:23:05;;;;;;;11.32;9.48;;;26.70;58.90;;;;;;5114565;28;20023;-76
2022/08/14 04:25:35;;;;;;;13.32;9.43;;;26.60;59.00;;;;;;5095107;28;20550;-76
2022/08/14 04:28:05;;;;;;;10.60;8.90;;;26.50;59.70;;;;;;5115028;28;20030;-76
2022/08/14 04:30:37;;;;;;;12.70;8.85;;;26.60;59.10;;;;;;5114982;28;20026;-79
2022/08/14 04:33:07;;;;;;;10.20;8.85;;;26.60;59.20;;;;;;5114477;28;20377;-77
2022/08/14 04:35:35;;;;;;;10.93;8.63;;;26.50;59.50;;;;;;5114535;28;20015;-79
2022/08/14 04:43:35;;;;;;;11.35;8.95;;;26.60;59.30;;;;;;5115134;28;20035;-78
2022/08/14 04:46:02;;;;;;;11.48;8.98;;;26.80;59.20;;;;;;5115633;28;20020;-77
2022/08/14 04:48:28;;;;;;;10.73;8.93;;;26.80;59.00;;;;;;5114942;28;20379;-76
2022/08/14 04:50:55;;;;;;;9.52;8.15;;;26.90;58.70;;;;;;5115017;28;20470;-76
2022/08/14 04:53:27;;;;;;;10.88;8.25;;;27.00;58.80;;;;;;5096741;28;20073;-76
2022/08/14 04:55:54;;;;;;;10.38;8.13;;;27.10;58.50;;;;;;5096371;28;20047;-76
2022/08/14 04:58:26;;;;;;;11.02;8.88;;;27.20;58.20;;;;;;5114501;28;20023;-76
2022/08/14 05:00:54;;;;;;;12.73;8.88;;;27.30;58.10;;;;;;5114726;28;20072;-75
2022/08/14 05:03:22;;;;;;;10.57;8.82;;;27.40;58.00;;;;;;5114784;28;20027;-77
2022/08/14 05:05:52;;;;;;;11.93;8.80;;;27.50;58.10;;;;;;5114499;28;20494;-75
2022/08/14 05:08:18;;;;;;;10.32;8.55;;;27.60;57.80;;;;;;5114372;28;20039;-75
2022/08/14 05:10:49;;;;;;;11.60;8.80;;;27.70;57.70;;;;;;5114538;28;20080;-76
2022/08/14 05:13:15;;;;;;;10.75;8.75;;;27.80;57.70;;;;;;5114189;28;20027;-76
2022/08/14 05:15:43;;;;;;;10.32;9.23;;;27.90;57.50;;;;;;5113145;28;20030;-76
2022/08/14 05:18:12;;;;;;;11.10;9.00;;;28.00;57.60;;;;;;5113947;28;20028;-77
2022/08/14 05:20:49;;;;;;;10.45;8.23;;;28.10;58.10;;;;;;5114675;28;20033;-76
2022/08/14 05:23:30;;;;;;;12.32;8.95;;;28.20;57.40;;;;;;5113835;28;20106;-76
2022/08/14 05:26:16;;;;;;;10.43;7.88;;;28.30;57.20;;;;;;5113767;28;20031;-76
2022/08/14 05:28:44;;;;;;;10.20;7.70;;;28.30;56.90;;;;;;5113750;28;20034;-76
2022/08/14 05:31:12;;;;;;;10.32;8.02;;;28.40;57.00;;;;;;5113322;28;20020;-76
2022/08/14 05:33:39;;;;;;;11.18;7.80;;;28.40;56.80;;;;;;5113775;28;20019;-76
2022/08/14 05:36:10;;;;;;;9.93;7.68;;;28.50;56.60;;;;;;5113640;28;20028;-75
2022/08/14 05:38:42;;;;;;;9.82;7.30;;;28.50;56.40;;;;;;5113413;28;20070;-76
2022/08/14 05:41:17;;;;;;;9.50;7.43;;;28.50;56.60;;;;;;5113844;28;20058;-76
2022/08/14 05:43:44;;;;;;;9.63;7.60;;;28.60;56.30;;;;;;5113625;28;20100;-76
2022/08/14 05:46:12;;;;;;;8.73;7.40;;;28.70;56.60;;;;;;5113292;28;20068;-75
2022/08/14 05:48:38;;;;;;;9.00;7.40;;;28.80;56.40;;;;;;5113322;28;20035;-76
2022/08/14 05:51:04;;;;;;;9.82;8.20;;;28.90;56.40;;;;;;5113662;28;20035;-76
2022/08/14 05:53:29;;;;;;;9.23;7.72;;;29.00;56.30;;;;;;5113755;28;20469;-76
2022/08/14 05:55:56;;;;;;;7.78;6.75;;;29.20;56.20;;;;;;5113389;28;20387;-76
2022/08/14 05:58:22;;;;;;;9.75;7.43;;;29.40;55.90;;;;;;5113288;28;20034;-76
2022/08/14 06:00:50;;;;;;;8.25;7.20;;;29.40;56.10;;;;;;5113893;28;20465;-76
2022/08/14 06:03:19;;;;;;;8.93;7.07;;;29.40;56.20;;;;;;5113594;28;20427;-76
2022/08/14 06:05:47;;;;;;;8.90;7.28;;;29.20;56.20;;;;;;5113542;28;20019;-76
2022/08/14 06:08:25;;;;;;;9.55;7.30;;;28.90;56.50;;;;;;5095177;28;20030;-76
2022/08/14 06:10:54;;;;;;;8.50;6.88;;;28.80;56.70;;;;;;5113395;28;20096;-76
2022/08/14 06:13:21;;;;;;;8.65;7.05;;;29.00;56.50;;;;;;5095249;28;20024;-76
2022/08/14 06:15:48;;;;;;;8.45;6.68;;;29.30;56.30;;;;;;5113527;28;20020;-77
2022/08/14 06:18:15;;;;;;;9.05;6.68;;;29.20;56.40;;;;;;5113205;28;20034;-75
2022/08/14 06:20:41;;;;;;;10.30;7.22;;;29.40;56.60;;;;;;5113533;28;20465;-76
2022/08/14 06:23:07;;;;;;;11.13;7.35;;;29.00;56.90;;;;;;5113036;28;20031;-75
2022/08/14 06:25:33;;;;;;;8.75;7.13;;;29.10;56.80;;;;;;5112787;28;20023;-76
2022/08/14 06:27:58;;;;;;;10.15;7.15;;;29.30;56.90;;;;;;5113080;28;20015;-76
2022/08/14 06:30:28;;;;;;;8.43;7.03;;;29.50;55.90;;;;;;5112865;28;20024;-75
2022/08/14 06:32:54;;;;;;;10.60;7.50;;;29.60;56.00;;;;;;5112584;28;20050;-76
2022/08/14 06:35:22;;;;;;;13.45;7.10;;;29.50;56.10;;;;;;5113257;28;20263;-76
2022/08/14 06:37:54;;;;;;;8.95;6.82;;;29.70;56.00;;;;;;5112355;28;20035;-76
2022/08/14 06:40:25;;;;;;;8.43;7.43;;;29.80;56.30;;;;;;5094508;28;20034;-76
2022/08/14 06:42:51;;;;;;;9.88;6.93;;;30.00;55.70;;;;;;5113330;28;20019;-76
2022/08/14 06:45:17;;;;;;;9.40;7.38;;;30.20;55.80;;;;;;5112409;28;20039;-78
2022/08/14 06:47:45;;;;;;;9.85;7.25;;;29.80;55.60;;;;;;5112565;28;20020;-76
2022/08/14 06:50:16;;;;;;;10.68;7.30;;;29.10;57.30;;;;;;5116388;28;20019;-76
2022/08/14 06:52:43;;;;;;;8.68;7.15;;;29.40;57.10;;;;;;5116854;28;20057;-76
2022/08/14 06:55:11;;;;;;;8.98;6.72;;;29.90;56.60;;;;;;5116510;28;20085;-76
2022/08/14 06:57:44;;;;;;;8.90;6.95;;;30.20;55.40;;;;;;5116834;28;20077;-76
2022/08/14 07:00:27;;;;;;;7.63;6.47;;;30.50;56.10;;;;;;5116811;28;20016;-76
2022/08/14 07:05:45;;;;;;;9.45;6.80;;;31.00;54.90;;;;;;5117083;28;20122;-76
2022/08/14 07:08:26;;;;;;;11.25;6.85;;;31.00;54.60;;;;;;5117007;28;20103;-77
2022/08/14 07:10:54;;;;;;;8.75;6.93;;;31.20;55.00;;;;;;5116191;28;20019;-76
2022/08/14 07:13:21;;;;;;;9.40;7.03;;;31.60;54.20;;;;;;5116518;28;20020;-77
2022/08/14 07:15:49;;;;;;;11.05;7.32;;;31.70;53.70;;;;;;5116727;28;20125;-75
2022/08/14 07:18:20;;;;;;;8.60;7.18;;;31.90;53.60;;;;;;5116256;28;20070;-74
2022/08/14 07:20:46;;;;;;;8.77;7.15;;;31.90;54.10;;;;;;5116393;28;20016;-74
2022/08/14 07:23:12;;;;;;;8.38;6.97;;;32.00;53.80;;;;;;5116552;28;20110;-73
2022/08/14 07:25:40;;;;;;;10.15;6.72;;;32.10;52.60;;;;;;5115929;28;20496;-74
2022/08/14 07:28:16;;;;;;;8.65;6.70;;;32.20;52.50;;;;;;5116282;28;20020;-74
2022/08/14 07:30:43;;;;;;;9.07;7.30;;;31.90;52.80;;;;;;5116165;28;20043;-74
2022/08/14 07:33:11;;;;;;;9.95;7.07;;;31.90;53.70;;;;;;5116101;28;20024;-75
2022/08/14 07:35:38;;;;;;;8.73;6.50;;;32.30;53.50;;;;;;5116318;28;20386;-75
2022/08/14 07:38:05;;;;;;;8.63;6.68;;;32.60;52.10;;;;;;5116378;28;20043;-76
2022/08/14 07:40:31;;;;;;;8.23;6.68;;;32.80;51.90;;;;;;5116544;28;20016;-79
2022/08/14 07:42:57;;;;;;;7.65;6.18;;;31.70;52.50;;;;;;5115943;28;20030;-75
2022/08/14 07:45:23;;;;;;;7.50;6.45;;;31.40;54.10;;;;;;5116187;28;20106;-73
2022/08/14 07:47:48;;;;;;;8.25;6.68;;;31.30;53.40;;;;;;5115786;28;20016;-74
2022/08/14 07:50:17;;;;;;;8.88;6.50;;;31.60;53.50;;;;;;5116088;28;20030;-75
2022/08/14 07:52:45;;;;;;;8.38;6.18;;;32.10;52.80;;;;;;5116192;28;20069;-74
2022/08/14 07:55:13;;;;;;;7.93;6.57;;;32.50;52.30;;;;;;5115602;28;20047;-74
2022/08/14 07:57:40;;;;;;;8.90;6.75;;;32.60;52.40;;;;;;5116205;28;20042;-77
2022/08/14 08:00:12;;;;;;;7.70;6.40;;;32.30;52.70;;;;;;5115083;28;20474;-77
2022/08/14 08:02:43;;;;;;;9.45;6.07;;;31.90;52.90;;;;;;5116176;28;20050;-79
2022/08/14 08:05:10;;;;;;;9.02;6.32;;;31.60;52.40;;;;;;5115693;28;20020;-76
2022/08/14 08:07:37;;;;;;;7.57;6.10;;;31.40;52.90;;;;;;5115292;28;20030;-75
2022/08/14 08:12:55;;;;;;;8.00;6.25;;;31.90;52.60;;;;;;5115387;28;20522;-75
2022/08/14 08:15:23;;;;;;;7.78;6.28;;;32.70;52.30;;;;;;5115567;28;20028;-75
2022/08/14 08:17:50;;;;;;;7.38;6.13;;;33.30;51.70;;;;;;5097145;28;20035;-75
2022/08/14 08:20:22;;;;;;;7.95;6.30;;;33.70;51.40;;;;;;5097206;28;20381;-75
2022/08/14 08:22:49;;;;;;;11.07;6.43;;;33.70;51.60;;;;;;5112401;28;20027;-74
2022/08/14 08:25:16;;;;;;;8.90;6.45;;;33.30;50.40;;;;;;5100165;28;20026;-74
2022/08/14 08:27:42;;;;;;;6.88;5.90;;;33.40;51.30;;;;;;5103214;28;20373;-75
2022/08/14 08:30:09;;;;;;;8.02;6.18;;;33.00;50.80;;;;;;5080837;28;20039;-76
2022/08/14 08:32:42;;;;;;;8.10;6.70;;;32.60;51.00;;;;;;5113309;28;20023;-76
2022/08/14 08:35:24;;;;;;;7.75;6.60;;;32.30;51.90;;;;;;5112984;27;20060;-78
2022/08/14 08:37:51;;;;;;;8.48;6.47;;;32.80;51.70;;;;;;5113489;28;20032;-75
2022/08/14 08:40:29;;;;;;;6.82;6.05;;;32.60;51.60;;;;;;5114090;28;20020;-76
2022/08/14 08:42:54;;;;;;;7.55;5.90;;;33.20;51.30;;;;;;5111783;28;20027;-77
2022/08/14 08:45:21;;;;;;;7.78;5.78;;;33.50;50.30;;;;;;5115006;27;20027;-75
2022/08/14 08:47:49;;;;;;;7.57;6.28;;;33.50;50.10;;;;;;5120121;27;21539;-77
2022/08/14 08:50:26;;;;;;;8.73;6.05;;;33.60;50.30;;;;;;5115555;27;20024;-77
2022/08/14 08:52:53;;;;;;;7.20;5.90;;;33.90;50.40;;;;;;5103569;28;20135;-74
2022/08/14 08:55:29;;;;;;;7.72;6.18;;;33.70;50.60;;;;;;5099942;28;20055;-77
2022/08/14 08:58:00;;;;;;;12.32;6.50;;;33.90;50.50;;;;;;5111854;28;20036;-77
2022/08/14 09:00:32;;;;;;;7.35;5.75;;;33.70;50.20;;;;;;5109579;27;20033;-76
2022/08/14 09:03:07;;;;;;;9.02;5.82;;;33.90;50.00;;;;;;5099538;28;20026;-80
2022/08/14 09:05:36;;;;;;;8.82;6.50;;;34.30;50.30;;;;;;5094635;28;20195;-76
2022/08/14 09:08:09;;;;;;;8.23;6.10;;;34.60;49.20;;;;;;5098670;28;20024;-80
2022/08/14 09:10:36;;;;;;;7.90;6.32;;;34.50;49.70;;;;;;5111731;28;20031;-77
2022/08/14 09:13:02;;;;;;;7.47;6.13;;;34.30;50.30;;;;;;5098378;28;20016;-76
2022/08/14 09:15:27;;;;;;;7.60;6.03;;;34.60;50.10;;;;;;5108963;28;20078;-77
2022/08/14 09:17:53;;;;;;;8.82;6.53;;;34.90;49.10;;;;;;5114208;28;20036;-75
2022/08/14 09:20:19;;;;;;;7.05;5.97;;;35.00;49.30;;;;;;5113894;28;20481;-77
2022/08/14 09:22:47;;;;;;;8.85;6.28;;;35.00;49.60;;;;;;5095836;28;20027;-79
2022/08/14 09:25:13;;;;;;;7.38;6.10;;;35.10;47.70;;;;;;5114151;28;20020;-76
2022/08/14 09:27:38;;;;;;;9.27;5.72;;;34.10;48.80;;;;;;5094820;28;20057;-76
2022/08/14 09:30:06;;;;;;;6.78;5.75;;;33.90;49.70;;;;;;5112418;28;20094;-77
2022/08/14 09:32:49;;;;;;;7.97;5.95;;;33.80;49.40;;;;;;5113040;28;20019;-76
2022/08/14 09:35:23;;;;;;;6.90;5.50;;;33.70;48.20;;;;;;5111798;28;20034;-77
2022/08/14 09:38:07;;;;;;;7.50;5.85;;;34.10;49.00;;;;;;5111967;28;20543;-76
2022/08/14 09:41:09;;;;;;;6.45;5.50;;;34.60;47.90;;;;;;5112133;28;20015;-76
2022/08/14 09:43:41;;;;;;;10.48;5.63;;;34.50;47.50;;;;;;5112820;28;20390;-76
2022/08/14 09:46:07;;;;;;;6.65;5.78;;;34.60;48.10;;;;;;5113880;28;20413;-76
2022/08/14 09:48:34;;;;;;;7.22;5.50;;;34.80;48.10;;;;;;5114016;28;20024;-76
2022/08/14 09:51:00;;;;;;;7.70;5.78;;;34.80;48.10;;;;;;5113724;28;20019;-76
2022/08/14 09:53:42;;;;;;;8.48;6.03;;;34.90;48.50;;;;;;5114048;28;20080;-77
2022/08/14 09:56:09;;;;;;;7.10;5.95;;;34.60;48.50;;;;;;5094900;28;20524;-77
2022/08/14 09:58:40;;;;;;;7.03;5.55;;;34.70;49.00;;;;;;5113526;28;20078;-80
2022/08/14 10:01:17;;;;;;;30.88;28.55;;;35.10;47.30;;;;;;5113533;28;20024;-77
2022/08/14 10:03:48;;;;;;;7.05;5.70;;;34.50;48.00;;;;;;5113346;28;20480;-76
2022/08/14 10:06:19;;;;;;;8.23;6.07;;;34.40;48.30;;;;;;5113614;28;20409;-76
2022/08/14 10:08:54;;;;;;;6.68;5.70;;;34.10;48.60;;;;;;5113232;28;20020;-76
2022/08/14 10:11:34;;;;;;;6.97;5.60;;;34.50;49.10;;;;;;5095223;28;20027;-78
2022/08/14 10:14:18;;;;;;;9.45;5.93;;;34.70;48.00;;;;;;5113266;28;20377;-76
2022/08/14 10:16:47;;;;;;;9.05;5.85;;;34.80;48.80;;;;;;5113388;28;20418;-76
2022/08/14 10:19:14;;;;;;;8.35;5.80;;;34.90;49.60;;;;;;5094587;28;20080;-78
2022/08/14 10:21:55;;;;;;;6.30;5.55;;;34.90;48.60;;;;;;5113130;28;20028;-75
2022/08/14 10:24:26;;;;;;;7.22;5.80;;;35.00;48.80;;;;;;5112251;28;20430;-77
2022/08/14 10:26:53;;;;;;;9.25;5.80;;;35.10;48.40;;;;;;5113138;28;20034;-75
2022/08/14 10:29:39;;;;;;;8.10;6.35;;;35.20;48.00;;;;;;5113254;28;20031;-77
2022/08/14 10:32:08;;;;;;;8.55;5.90;;;35.10;48.00;;;;;;5095050;28;20047;-75
2022/08/14 10:34:35;;;;;;;10.32;5.85;;;35.20;48.30;;;;;;5112966;28;20019;-76
2022/08/14 10:37:13;;;;;;;7.22;5.47;;;35.20;48.20;;;;;;5112836;28;20063;-77
2022/08/14 10:39:40;;;;;;;8.13;6.03;;;35.40;47.80;;;;;;5113163;28;20157;-76
2022/08/14 10:42:10;;;;;;;9.93;5.78;;;35.70;47.20;;;;;;5113063;28;20104;-76
2022/08/14 10:44:48;;;;;;;6.90;5.53;;;35.80;46.60;;;;;;5113008;28;20023;-78
2022/08/14 10:47:17;;;;;;;8.20;5.90;;;35.30;46.60;;;;;;5113125;28;20077;-76
2022/08/14 10:49:55;;;;;;;7.17;5.50;;;35.20;47.20;;;;;;5113063;28;20019;-76
2022/08/14 10:52:26;;;;;;;6.97;5.43;;;34.90;47.60;;;;;;5112948;28;20061;-76
2022/08/14 10:55:06;;;;;;;6.85;5.57;;;35.10;46.90;;;;;;5094449;28;20039;-76
2022/08/14 10:57:34;;;;;;;6.65;5.57;;;35.30;46.90;;;;;;5112792;28;20031;-78
2022/08/14 11:00:14;;;;;;;7.97;5.65;;;35.20;47.10;;;;;;5113139;28;20023;-75
2022/08/14 11:02:41;;;;;;;11.38;6.13;;;35.00;48.20;;;;;;5112822;28;20026;-76
2022/08/14 11:05:17;;;;;;;16.27;5.90;;;34.80;48.30;;;;;;5112819;28;20015;-76
2022/08/14 11:08:02;;;;;;;9.63;5.57;;;34.80;48.50;;;;;;5112739;28;20082;-76
2022/08/14 11:11:00;;;;;;;13.10;5.82;;;34.80;48.80;;;;;;5112543;28;20042;-75
2022/08/14 11:13:28;;;;;;;7.85;5.78;;;34.90;48.50;;;;;;5093006;28;20032;-75
2022/08/14 11:15:59;;;;;;;8.35;6.15;;;34.80;48.50;;;;;;5112904;28;20457;-77
2022/08/14 11:18:26;;;;;;;7.18;6.13;;;34.80;48.70;;;;;;5112744;28;20036;-76
2022/08/14 11:20:54;;;;;;;9.13;6.60;;;35.00;48.30;;;;;;5112925;28;20454;-76
2022/08/14 11:23:27;;;;;;;8.75;6.28;;;35.00;48.70;;;;;;5094179;28;20450;-76
2022/08/14 11:25:55;;;;;;;8.80;6.35;;;35.10;48.80;;;;;;5112615;28;20027;-78
2022/08/14 11:28:26;;;;;;;7.57;5.90;;;35.30;49.10;;;;;;5112184;28;20070;-76
2022/08/14 11:30:55;;;;;;;11.90;6.25;;;35.40;48.30;;;;;;5112497;28;20081;-76
2022/08/14 11:33:28;;;;;;;8.57;6.40;;;35.30;48.50;;;;;;5112638;28;20103;-77
2022/08/14 11:35:54;;;;;;;8.35;6.03;;;35.40;48.40;;;;;;5115324;28;20016;-76
2022/08/14 11:38:20;;;;;;;12.63;6.55;;;35.60;48.70;;;;;;5116173;28;20176;-75
2022/08/14 11:40:46;;;;;;;10.20;6.45;;;35.90;48.50;;;;;;5116268;28;20023;-83
2022/08/14 11:43:12;;;;;;;8.77;6.07;;;36.10;48.10;;;;;;5116137;28;20020;-76
2022/08/14 11:45:39;;;;;;;10.13;6.30;;;36.20;47.00;;;;;;5115825;28;20527;-76
2022/08/14 11:48:23;;;;;;;7.03;6.10;;;36.20;47.20;;;;;;5116218;28;20027;-77
2022/08/14 11:50:53;;;;;;;6.82;5.82;;;36.10;46.70;;;;;;5115922;28;20011;-76
2022/08/14 11:53:29;;;;;;;8.52;5.93;;;36.40;46.50;;;;;;5116069;28;20095;-76
2022/08/14 11:55:58;;;;;;;8.10;6.30;;;36.80;46.40;;;;;;5115797;28;20063;-76
2022/08/14 11:58:26;;;;;;;9.77;5.95;;;37.00;46.60;;;;;;5097606;28;20047;-77
2022/08/14 12:00:58;;;;;;;7.13;5.63;;;37.30;46.30;;;;;;5115855;28;20024;-75
2022/08/14 12:03:35;;;;;;;8.70;5.53;;;37.40;45.90;;;;;;5115654;28;20028;-75
2022/08/14 12:06:11;;;;;;;7.63;5.65;;;37.30;46.10;;;;;;5116017;28;20457;-77
2022/08/14 12:08:38;;;;;;;7.35;6.00;;;37.20;45.50;;;;;;5115560;28;20078;-75
2022/08/14 12:11:09;;;;;;;8.30;5.90;;;36.90;45.40;;;;;;5115766;28;20026;-75
2022/08/14 12:13:35;;;;;;;6.95;5.80;;;37.00;44.80;;;;;;5115782;28;20026;-75
2022/08/14 12:16:09;;;;;;;7.40;6.38;;;37.00;44.70;;;;;;5115416;28;20031;-75
2022/08/14 12:18:38;;;;;;;7.88;5.45;;;36.80;45.30;;;;;;5115535;28;20031;-76
2022/08/14 12:21:24;;;;;;;6.88;5.35;;;37.00;44.20;;;;;;5115564;28;20023;-75
2022/08/14 12:24:01;;;;;;;6.53;5.43;;;37.00;43.70;;;;;;5115341;28;20028;-78
2022/08/14 12:26:27;;;;;;;8.27;5.57;;;37.00;44.20;;;;;;5115322;28;20103;-76
2022/08/14 12:29:11;;;;;;;8.65;5.82;;;37.00;44.10;;;;;;5115159;28;20071;-76
2022/08/14 12:31:39;;;;;;;6.60;5.68;;;37.10;43.90;;;;;;5115339;28;20387;-75
2022/08/14 12:34:10;;;;;;;6.15;5.55;;;37.10;43.20;;;;;;5115351;28;20068;-89
2022/08/14 12:36:36;;;;;;;7.10;5.68;;;37.00;43.80;;;;;;5115404;28;20094;-82
2022/08/14 12:39:22;;;;;;;8.05;5.78;;;36.80;43.60;;;;;;5096689;28;20079;-77
2022/08/14 12:41:55;;;;;;;11.40;6.22;;;36.50;44.20;;;;;;5096992;28;20054;-78
2022/08/14 12:44:36;;;;;;;9.15;5.40;;;36.50;44.50;;;;;;5114765;28;20045;-79
2022/08/14 12:47:16;;;;;;;6.55;5.25;;;36.70;44.60;;;;;;5114036;28;20026;-75
2022/08/14 12:49:53;;;;;;;7.90;5.70;;;36.90;44.20;;;;;;5114844;28;20023;-77
2022/08/14 12:52:30;;;;;;;7.88;5.35;;;37.10;44.50;;;;;;5115014;28;20027;-79
2022/08/14 12:55:08;;;;;;;8.30;5.78;;;36.80;43.70;;;;;;5115025;28;20036;-80
2022/08/14 12:57:36;;;;;;;8.23;6.05;;;36.80;43.50;;;;;;5114927;28;20036;-77
2022/08/14 13:00:16;;;;;;;7.82;5.60;;;36.80;44.10;;;;;;5114739;28;20024;-86
2022/08/14 13:02:44;;;;;;;7.88;5.80;;;37.10;43.40;;;;;;5114792;28;20106;-77
2022/08/14 13:05:11;;;;;;;6.47;5.57;;;36.90;43.50;;;;;;5114861;28;20462;-77
2022/08/14 13:07:39;;;;;;;6.95;5.85;;;36.80;43.20;;;;;;5114258;28;20089;-78